Flight Track Log - Related Links

Times and Time Zones

All times are in EST time to prevent confusion due to time zone crossing. See the N922FE flight status page for this flight to view local times or setup timezone preferences in your user account.

Time Position Orientation Groundspeed Altitude Reporting Facility
EST Latitude Longitude Course Direction KTS MPH feet Rate Location/Type
Fri 11:07:08 AM 31.4414 -100.4594 30° Northeast 132 152 5,400  Level Fort Worth Center
Fri 11:08:10 AM 31.4761 -100.4344 32° Northeast 144 166 6,700 871 Climbing Fort Worth Center
Fri 11:09:12 AM 31.5086 -100.4053 37° Northeast 137 158 7,200 145 Climbing Fort Worth Center
Fri 11:10:14 AM 31.5467 -100.3719 37° Northeast 168 193 7,000 -97 Descending Fort Worth Center
Fri 11:11:00 AM 31.5751 -100.3082 40° Northeast  Level FlightAware Approximate
Fri 11:11:16 AM 31.5850 -100.3414 34° Northeast 166 191 7,000  Level Fort Worth Center
Fri 11:12:00 AM 31.6131 -100.2796 30° Northeast  Level FlightAware Approximate
Fri 11:12:18 AM 31.6256 -100.3067 36° Northeast 167 192 7,000  Level Fort Worth Center
Fri 11:13:20 AM 31.6636 -100.2744 36° Northeast 169 194 7,000  Level Fort Worth Center
Fri 11:14:22 AM 31.7058 -100.2408 34° Northeast 170 196 7,000  Level Fort Worth Center
Fri 11:15:24 AM 31.7433 -100.2081 37° Northeast 169 194 7,000  Level Fort Worth Center
Fri 11:16:27 AM 31.7850 -100.1747 34° Northeast 168 193 7,000  Level Fort Worth Center
Fri 11:17:29 AM 31.8231 -100.1428 35° Northeast 168 193 7,000  Level Fort Worth Center
Fri 11:18:31 AM 31.8628 -100.1081 37° Northeast 166 191 7,000  Level Fort Worth Center
Fri 11:19:33 AM 31.8981 -100.0722 41° Northeast 166 191 7,000 -145 Level Fort Worth Center
Fri 11:20:35 AM 31.9269 -100.0228 55° Northeast 170 196 6,700 -290 Descending Fort Worth Center
Fri 11:21:37 AM 31.9542 -99.9856 49° Northeast 175 201 6,400 -339 Descending Fort Worth Center
Fri 11:22:39 AM 31.9881 -99.9253 56° Northeast 180 207 6,000 -242 Descending Fort Worth Center
Fri 11:23:41 AM 32.0119 -99.8742 61° Northeast 179 206 5,900 -48 Descending Fort Worth Center
Fri 11:24:43 AM 32.0261 -99.8239 72° East 170 196 5,900  Level Fort Worth Center
Fri 11:25:46 AM 32.0425 -99.7733 69° East 167 192 5,900 -96 Level Fort Worth Center
Fri 11:26:48 AM 32.0592 -99.7222 69° East 167 192 5,700 -435 Descending Fort Worth Center
Fri 11:27:50 AM 32.0839 -99.6633 64° Northeast 181 208 5,000 -726 Descending Fort Worth Center
Fri 11:28:52 AM 32.1272 -99.6564 North 168 193 4,200 -435 Descending Fort Worth Center
Fri 11:29:54 AM 32.1703 -99.6661 349° North 161 185 4,100 -48 Descending Fort Worth Center
Fri 11:30:56 AM 32.2097 -99.6722 353° North 152 175 4,100  Level Fort Worth Center
Fri 11:31:58 AM 32.2497 -99.6767 355° North 146 168 4,100 -48 Level Fort Worth Center
Fri 11:33:00 AM 32.2897 -99.6747 North 145 167 4,000 -581 Descending Fort Worth Center
Fri 11:34:02 AM 32.3322 -99.6744 360° North 135 155 2,900 -816 Descending Fort Worth Center
Fri 11:35:05 AM 32.3647 -99.6742 360° North 126 145 2,300 -576 Descending Fort Worth Center
Fri 11:36:07 AM 32.3969 -99.6747 359° North 121 139 1,700 -290 Descending Fort Worth Center
Fri 11:37:09 AM 32.4044 -99.6753 356° North 103 119 1,700  Level Fort Worth Center

Login

Don't have an account? Register now (free) for customized features, flight alerts, and more!